Time;durP1;ratioP1;P1;durP2;ratioP2;P2;SDS_P1;SDS_P2;PMS_P1;PMS_P2;Temp;Humidity;BMP_temperature;BMP_pressure;BME280_temperature;BME280_humidity;BME280_pressure;Samples;Min_cycle;Max_cycle;Signal;HPM_P1;HPM_P2
2023/07/23 00:00:33;;;;;;;11.10;5.88;;;22.40;76.00;;;;;;5015445;28;20026;-62
2023/07/23 00:02:59;;;;;;;11.23;5.95;;;22.40;76.10;;;;;;5014792;28;20169;-62
2023/07/23 00:05:25;;;;;;;8.20;5.88;;;22.40;76.10;;;;;;5014868;28;20067;-59
2023/07/23 00:07:57;;;;;;;8.95;6.15;;;22.40;76.10;;;;;;5018834;28;20036;-60
2023/07/23 00:10:24;;;;;;;11.00;5.95;;;22.40;76.10;;;;;;5028937;28;20048;-59
2023/07/23 00:12:50;;;;;;;8.77;5.45;;;22.40;76.10;;;;;;5035701;28;20030;-57
2023/07/23 00:15:17;;;;;;;8.82;5.45;;;22.40;76.20;;;;;;5034007;28;20188;-59
2023/07/23 00:17:43;;;;;;;9.00;5.93;;;22.40;76.20;;;;;;5034695;28;20025;-56
2023/07/23 00:20:10;;;;;;;9.43;5.60;;;22.40;76.20;;;;;;5033956;28;20459;-60
2023/07/23 00:22:37;;;;;;;11.02;6.05;;;22.40;76.20;;;;;;5035549;28;20036;-62
2023/07/23 00:25:04;;;;;;;7.35;4.68;;;22.40;76.30;;;;;;5035067;28;20498;-62
2023/07/23 00:27:30;;;;;;;8.60;5.13;;;22.40;76.20;;;;;;5034263;28;20068;-62
2023/07/23 00:29:56;;;;;;;8.05;5.00;;;22.40;76.10;;;;;;5035258;28;20026;-59
2023/07/23 00:32:25;;;;;;;7.88;4.88;;;22.40;76.10;;;;;;5035483;28;20327;-61
2023/07/23 00:34:51;;;;;;;8.38;4.85;;;22.40;76.00;;;;;;5035339;28;20022;-63
2023/07/23 00:37:17;;;;;;;9.00;5.40;;;22.40;76.00;;;;;;5035146;28;20033;-59
2023/07/23 00:39:43;;;;;;;7.95;4.90;;;22.40;75.90;;;;;;5034978;28;20578;-62
2023/07/23 00:42:08;;;;;;;7.35;4.85;;;22.40;75.90;;;;;;5033104;28;20071;-58
2023/07/23 00:44:34;;;;;;;8.93;5.53;;;22.40;75.80;;;;;;5032891;28;20018;-63
2023/07/23 00:47:02;;;;;;;9.90;5.38;;;22.40;75.80;;;;;;5033041;28;20053;-58
2023/07/23 00:49:29;;;;;;;8.23;5.32;;;22.40;75.80;;;;;;5033271;28;20033;-57
2023/07/23 00:51:57;;;;;;;8.88;5.25;;;22.30;75.90;;;;;;5032975;28;20061;-57
2023/07/23 00:54:24;;;;;;;10.52;5.40;;;22.30;75.90;;;;;;5032973;28;20176;-61
2023/07/23 00:56:51;;;;;;;8.43;4.80;;;22.30;75.90;;;;;;5033799;28;20041;-60
2023/07/23 00:59:18;;;;;;;8.95;5.55;;;22.30;75.90;;;;;;5035416;28;20026;-58
2023/07/23 01:01:44;;;;;;;9.55;5.22;;;22.20;75.90;;;;;;5033944;28;20037;-59
2023/07/23 01:04:10;;;;;;;7.55;4.40;;;22.30;75.90;;;;;;5035172;28;20013;-59
2023/07/23 01:06:39;;;;;;;6.47;4.18;;;22.30;75.90;;;;;;5034592;28;20485;-59
2023/07/23 01:09:06;;;;;;;8.00;4.68;;;22.20;75.80;;;;;;5034896;28;20105;-59
2023/07/23 01:11:33;;;;;;;8.57;5.13;;;22.30;75.70;;;;;;5034766;28;20033;-59
2023/07/23 01:14:04;;;;;;;7.68;4.75;;;22.30;75.70;;;;;;5035045;28;20033;-61
2023/07/23 01:16:32;;;;;;;6.18;4.28;;;22.30;75.70;;;;;;5035266;28;20454;-61
2023/07/23 01:19:02;;;;;;;7.50;4.82;;;22.30;75.60;;;;;;5033812;28;20411;-59
2023/07/23 01:21:28;;;;;;;9.02;5.28;;;22.30;75.60;;;;;;5037000;28;20032;-57
2023/07/23 01:23:54;;;;;;;6.82;4.43;;;22.30;75.60;;;;;;5036640;28;20113;-61
2023/07/23 01:26:21;;;;;;;7.85;4.82;;;22.30;75.60;;;;;;5037021;28;20347;-62
2023/07/23 01:28:47;;;;;;;8.02;4.78;;;22.30;75.50;;;;;;5037095;28;20021;-60
2023/07/23 01:31:13;;;;;;;8.75;5.03;;;22.30;75.40;;;;;;5037020;28;20467;-60
2023/07/23 01:33:42;;;;;;;7.70;4.90;;;22.30;75.40;;;;;;5037259;28;20052;-58
2023/07/23 01:36:09;;;;;;;8.50;4.90;;;22.30;75.40;;;;;;5036842;28;20117;-62
2023/07/23 01:38:35;;;;;;;7.07;4.45;;;22.30;75.50;;;;;;5038035;28;20041;-59
2023/07/23 01:41:02;;;;;;;7.07;4.18;;;22.30;75.60;;;;;;5038424;28;20367;-61
2023/07/23 01:43:28;;;;;;;6.07;4.15;;;22.30;75.50;;;;;;5038133;28;20056;-61
2023/07/23 01:45:54;;;;;;;7.10;4.15;;;22.30;75.60;;;;;;5038198;28;20021;-61
2023/07/23 01:48:22;;;;;;;6.18;4.30;;;22.30;75.50;;;;;;5038158;28;20063;-63
2023/07/23 01:50:48;;;;;;;7.05;4.70;;;22.30;75.50;;;;;;5038307;28;20028;-58
2023/07/23 01:53:13;;;;;;;7.13;4.60;;;22.30;75.50;;;;;;5038308;28;20029;-60
2023/07/23 01:55:40;;;;;;;6.43;4.18;;;22.30;75.50;;;;;;5038222;28;20025;-60
2023/07/23 01:58:06;;;;;;;7.28;4.72;;;22.30;75.50;;;;;;5038200;28;20037;-62
2023/07/23 02:00:32;;;;;;;9.35;5.45;;;22.20;75.50;;;;;;5038086;28;20105;-58
2023/07/23 02:02:58;;;;;;;7.63;4.93;;;22.30;75.50;;;;;;5037845;28;20399;-61
2023/07/23 02:05:24;;;;;;;7.25;4.60;;;22.20;75.50;;;;;;5037945;28;20099;-59
2023/07/23 02:07:50;;;;;;;6.82;4.55;;;22.20;75.60;;;;;;5038320;28;20030;-60
2023/07/23 02:10:20;;;;;;;6.72;4.32;;;22.20;75.60;;;;;;5038742;28;20041;-60
2023/07/23 02:12:46;;;;;;;7.55;4.75;;;22.20;75.70;;;;;;5036642;28;20413;-60
2023/07/23 02:15:12;;;;;;;6.82;4.40;;;22.10;75.80;;;;;;5037589;28;20029;-62
2023/07/23 02:17:39;;;;;;;6.93;4.45;;;22.10;75.90;;;;;;5037590;28;20060;-61
2023/07/23 02:20:06;;;;;;;8.70;5.03;;;22.00;75.90;;;;;;5037740;28;20049;-58
2023/07/23 02:22:32;;;;;;;7.35;4.82;;;22.00;76.00;;;;;;5037460;28;20104;-62
2023/07/23 02:24:59;;;;;;;6.05;4.60;;;22.00;76.10;;;;;;5037433;28;20109;-63
2023/07/23 02:27:24;;;;;;;8.40;5.40;;;22.00;76.10;;;;;;5037675;28;20021;-61
2023/07/23 02:29:50;;;;;;;8.88;5.68;;;22.00;76.10;;;;;;5036777;28;20507;-60
2023/07/23 02:32:16;;;;;;;9.45;5.05;;;22.00;76.00;;;;;;5036709;28;20033;-61
2023/07/23 02:34:42;;;;;;;8.45;5.13;;;21.90;76.00;;;;;;5037261;28;20033;-60
2023/07/23 02:37:08;;;;;;;9.18;5.28;;;21.90;76.10;;;;;;5037694;28;20120;-62
2023/07/23 02:39:34;;;;;;;7.10;5.03;;;21.90;76.10;;;;;;5037083;28;20021;-61
2023/07/23 02:42:00;;;;;;;6.28;4.53;;;21.80;76.10;;;;;;5037354;28;20029;-58
2023/07/23 02:44:26;;;;;;;7.60;4.82;;;21.80;76.10;;;;;;5037347;28;20443;-61
2023/07/23 02:46:52;;;;;;;6.80;4.80;;;21.80;76.00;;;;;;5036963;28;20036;-62
2023/07/23 02:49:18;;;;;;;7.47;5.20;;;21.80;76.00;;;;;;5036980;28;20040;-59
2023/07/23 02:51:44;;;;;;;10.05;4.85;;;21.80;75.90;;;;;;5036933;28;20033;-62
2023/07/23 02:54:10;;;;;;;8.15;4.50;;;21.70;75.90;;;;;;5036893;28;20116;-62
2023/07/23 02:56:36;;;;;;;6.53;4.22;;;21.70;75.90;;;;;;5036887;28;20339;-58
2023/07/23 02:59:03;;;;;;;6.18;4.30;;;21.70;76.00;;;;;;5036770;28;20033;-64
2023/07/23 03:01:30;;;;;;;6.00;4.50;;;21.70;76.00;;;;;;5036995;28;20025;-59
2023/07/23 03:03:56;;;;;;;6.93;4.32;;;21.70;76.00;;;;;;5036928;28;20053;-61
2023/07/23 03:06:22;;;;;;;6.13;4.18;;;21.70;75.90;;;;;;5036522;28;20072;-58
2023/07/23 03:08:47;;;;;;;7.72;5.13;;;21.70;75.90;;;;;;5036587;28;20083;-59
2023/07/23 03:11:13;;;;;;;7.22;4.70;;;21.70;75.90;;;;;;5035592;28;20021;-58
2023/07/23 03:13:40;;;;;;;6.47;4.47;;;21.70;75.90;;;;;;5036777;28;20454;-59
2023/07/23 03:16:06;;;;;;;7.53;4.63;;;21.70;75.80;;;;;;5036644;28;20064;-60
2023/07/23 03:18:32;;;;;;;6.90;4.70;;;21.60;75.90;;;;;;5036457;28;20053;-62
2023/07/23 03:20:57;;;;;;;7.63;4.80;;;21.60;75.90;;;;;;5036507;28;20025;-61
2023/07/23 03:23:23;;;;;;;6.63;4.57;;;21.60;75.90;;;;;;5037415;28;20076;-59
2023/07/23 03:25:49;;;;;;;6.80;4.43;;;21.50;76.00;;;;;;5036258;28;20347;-60
2023/07/23 03:28:15;;;;;;;6.93;4.47;;;21.50;76.00;;;;;;5036294;28;20029;-60
2023/07/23 03:30:41;;;;;;;7.22;4.82;;;21.50;76.00;;;;;;5036254;28;20430;-60
2023/07/23 03:33:07;;;;;;;5.88;4.38;;;21.50;76.00;;;;;;5036200;28;20486;-57
2023/07/23 03:35:33;;;;;;;8.30;4.75;;;21.50;76.00;;;;;;5036055;28;20474;-61
2023/07/23 03:37:59;;;;;;;7.18;4.82;;;21.50;75.90;;;;;;5035071;28;20025;-59
2023/07/23 03:40:25;;;;;;;6.30;4.60;;;21.50;75.90;;;;;;5036177;28;20025;-62
2023/07/23 03:42:51;;;;;;;8.57;4.55;;;21.50;75.90;;;;;;5035942;28;20021;-59
2023/07/23 03:45:17;;;;;;;6.72;4.35;;;21.40;75.90;;;;;;5035892;28;20022;-60
2023/07/23 03:47:43;;;;;;;7.10;4.75;;;21.40;75.90;;;;;;5036190;28;20079;-60
2023/07/23 03:50:09;;;;;;;6.70;4.45;;;21.40;75.90;;;;;;5035866;28;20030;-62
2023/07/23 03:52:35;;;;;;;8.63;4.32;;;21.40;75.90;;;;;;5036103;28;20062;-61
2023/07/23 03:55:01;;;;;;;4.97;3.78;;;21.40;75.90;;;;;;5035683;28;20033;-61
2023/07/23 03:57:27;;;;;;;6.68;4.38;;;21.40;76.00;;;;;;5036011;28;20028;-59
2023/07/23 03:59:53;;;;;;;6.50;4.45;;;21.40;75.90;;;;;;5035605;28;20033;-63
2023/07/23 04:02:19;;;;;;;6.90;4.55;;;21.40;75.90;;;;;;5036186;28;20026;-59
2023/07/23 04:04:45;;;;;;;5.88;4.18;;;21.40;75.90;;;;;;5035528;28;20033;-62
2023/07/23 04:07:11;;;;;;;7.90;4.30;;;21.30;76.00;;;;;;5035413;28;20100;-63
2023/07/23 04:09:37;;;;;;;7.18;4.70;;;21.30;76.00;;;;;;5036097;28;20037;-58
2023/07/23 04:12:03;;;;;;;6.22;4.38;;;21.30;76.10;;;;;;5035535;28;20033;-60
2023/07/23 04:14:29;;;;;;;7.50;4.70;;;21.40;76.00;;;;;;5035976;28;20045;-62
2023/07/23 04:16:55;;;;;;;7.32;4.40;;;21.40;76.00;;;;;;5035432;28;20029;-60
2023/07/23 04:19:21;;;;;;;6.47;4.45;;;21.40;75.90;;;;;;5035920;28;20052;-60
2023/07/23 04:21:47;;;;;;;6.53;4.38;;;21.50;75.90;;;;;;5035428;28;20018;-60
2023/07/23 04:24:13;;;;;;;6.93;4.28;;;21.50;75.70;;;;;;5035614;28;20085;-59
2023/07/23 04:26:39;;;;;;;7.82;4.63;;;21.70;75.60;;;;;;5035317;28;20099;-62
2023/07/23 04:29:05;;;;;;;6.65;4.18;;;21.70;75.60;;;;;;5035817;28;20331;-62
2023/07/23 04:31:31;;;;;;;8.32;4.35;;;21.80;75.40;;;;;;5035518;28;20025;-63
2023/07/23 04:33:59;;;;;;;5.70;4.20;;;21.90;75.20;;;;;;5035745;28;20450;-64
2023/07/23 04:36:25;;;;;;;7.25;4.78;;;21.90;75.10;;;;;;5035405;28;20025;-60
2023/07/23 04:38:50;;;;;;;6.28;4.18;;;22.00;75.00;;;;;;5035112;28;20351;-62
2023/07/23 04:41:16;;;;;;;7.75;4.28;;;22.10;75.00;;;;;;5035737;28;20036;-60
2023/07/23 04:43:43;;;;;;;8.65;5.00;;;22.20;74.90;;;;;;5035096;28;20026;-62
2023/07/23 04:46:09;;;;;;;7.35;4.75;;;22.60;74.70;;;;;;5035342;28;20026;-63
2023/07/23 04:48:36;;;;;;;7.10;4.53;;;23.00;74.10;;;;;;5035373;28;20056;-61
2023/07/23 04:51:07;;;;;;;7.63;4.60;;;23.50;73.40;;;;;;5035067;28;20040;-61
2023/07/23 04:53:33;;;;;;;7.55;4.68;;;23.90;72.40;;;;;;5035606;28;20022;-63
2023/07/23 04:56:01;;;;;;;8.50;4.85;;;24.40;71.40;;;;;;5037438;28;20050;-61
2023/07/23 04:58:27;;;;;;;7.75;4.90;;;25.00;70.40;;;;;;5039059;28;20068;-60
2023/07/23 05:00:53;;;;;;;10.52;5.00;;;25.50;69.10;;;;;;5038994;28;20055;-61
2023/07/23 05:03:19;;;;;;;8.27;4.75;;;26.00;68.00;;;;;;5039002;28;20439;-59
2023/07/23 05:05:50;;;;;;;6.38;4.10;;;26.50;66.90;;;;;;5039061;28;20053;-60
2023/07/23 05:08:19;;;;;;;8.25;5.05;;;27.00;65.60;;;;;;5039244;28;20103;-60
2023/07/23 05:10:45;;;;;;;6.82;4.10;;;27.50;64.30;;;;;;5037867;28;20343;-62
2023/07/23 05:13:13;;;;;;;7.45;4.40;;;27.90;63.20;;;;;;5039036;28;20025;-63
2023/07/23 05:15:40;;;;;;;8.20;3.80;;;28.40;62.20;;;;;;5038723;28;20025;-63
2023/07/23 05:18:06;;;;;;;6.53;4.13;;;28.90;61.20;;;;;;5038713;28;20029;-61
2023/07/23 05:20:32;;;;;;;7.68;4.43;;;29.50;60.00;;;;;;5039131;28;20514;-64
2023/07/23 05:22:58;;;;;;;7.75;4.55;;;30.00;58.80;;;;;;5038896;28;20100;-62
2023/07/23 05:25:24;;;;;;;7.45;4.40;;;30.50;57.60;;;;;;5038878;28;20017;-63
2023/07/23 05:27:50;;;;;;;6.10;4.07;;;31.00;56.10;;;;;;5039060;28;20033;-64
2023/07/23 05:30:17;;;;;;;7.47;4.53;;;31.50;54.80;;;;;;5038753;28;20029;-63
2023/07/23 05:32:48;;;;;;;7.88;4.05;;;32.00;53.50;;;;;;5039000;28;20118;-62
2023/07/23 05:35:14;;;;;;;6.40;4.18;;;32.60;52.40;;;;;;5038342;28;20022;-63
2023/07/23 05:37:40;;;;;;;7.13;4.15;;;33.00;51.60;;;;;;5038582;28;20094;-62
2023/07/23 05:40:07;;;;;;;7.57;4.30;;;33.50;50.90;;;;;;5038785;28;20367;-60
2023/07/23 05:42:33;;;;;;;6.72;4.07;;;34.00;49.80;;;;;;5038800;28;20049;-61
2023/07/23 05:44:59;;;;;;;7.28;4.68;;;34.60;48.80;;;;;;5038325;28;20415;-64
2023/07/23 05:47:25;;;;;;;7.05;4.18;;;35.00;47.50;;;;;;5038122;28;20034;-61
2023/07/23 05:49:51;;;;;;;6.90;4.40;;;35.50;46.80;;;;;;5038155;28;20025;-63
2023/07/23 05:52:17;;;;;;;6.95;4.20;;;36.00;45.60;;;;;;5038780;28;20041;-62
2023/07/23 05:54:43;;;;;;;7.25;4.68;;;36.40;44.10;;;;;;5038423;28;20120;-60
2023/07/23 05:57:09;;;;;;;5.10;4.10;;;36.70;43.40;;;;;;5038537;28;20075;-60
2023/07/23 05:59:35;;;;;;;5.32;4.03;;;37.10;42.80;;;;;;5038788;28;20037;-61
2023/07/23 06:02:01;;;;;;;5.97;3.88;;;37.50;42.40;;;;;;5038262;28;20076;-63
2023/07/23 06:04:27;;;;;;;5.43;3.90;;;38.00;41.70;;;;;;5037846;28;20021;-62
2023/07/23 06:06:53;;;;;;;5.82;3.85;;;38.60;40.70;;;;;;5037370;28;20042;-62
2023/07/23 06:09:19;;;;;;;6.03;3.97;;;39.00;40.00;;;;;;5037858;28;20028;-59
2023/07/23 06:11:45;;;;;;;5.22;3.67;;;39.40;39.00;;;;;;5037999;28;20446;-58
2023/07/23 06:14:11;;;;;;;5.63;4.20;;;39.90;38.40;;;;;;5038223;28;20036;-57
2023/07/23 06:16:37;;;;;;;5.60;3.90;;;40.20;37.30;;;;;;5036968;28;20033;-60
2023/07/23 06:19:03;;;;;;;7.75;4.07;;;40.40;36.70;;;;;;5037509;28;20036;-58
2023/07/23 06:21:29;;;;;;;7.32;3.85;;;40.50;35.90;;;;;;5037580;28;20398;-61
2023/07/23 06:23:55;;;;;;;5.25;3.80;;;40.60;35.80;;;;;;5037537;28;20021;-60
2023/07/23 06:26:24;;;;;;;6.07;4.10;;;40.80;35.40;;;;;;5037641;28;20022;-60
2023/07/23 06:28:50;;;;;;;7.55;3.80;;;40.90;34.90;;;;;;5036435;28;20427;-60
2023/07/23 06:31:18;;;;;;;5.82;3.55;;;41.00;34.50;;;;;;5036536;28;20029;-58
2023/07/23 06:33:44;;;;;;;5.95;3.63;;;41.20;33.20;;;;;;5037318;28;20414;-61
2023/07/23 06:36:10;;;;;;;5.45;3.50;;;41.10;32.60;;;;;;5037679;28;20029;-61
2023/07/23 06:38:36;;;;;;;4.78;3.55;;;41.20;32.20;;;;;;5037488;28;20155;-58
2023/07/23 06:41:02;;;;;;;6.63;3.38;;;41.40;32.50;;;;;;5037432;28;20037;-58
2023/07/23 06:43:28;;;;;;;7.07;3.90;;;41.70;32.00;;;;;;5037649;28;20025;-62
2023/07/23 06:45:54;;;;;;;5.00;3.50;;;42.00;31.30;;;;;;5037512;28;20053;-57
2023/07/23 06:48:21;;;;;;;4.45;3.25;;;42.10;30.70;;;;;;5037098;28;20434;-59
2023/07/23 06:50:47;;;;;;;5.25;3.50;;;42.20;30.10;;;;;;5036975;28;20053;-61
2023/07/23 06:53:14;;;;;;;4.40;3.38;;;42.00;29.80;;;;;;5036823;28;20029;-58
2023/07/23 06:56:02;;;;;;;5.80;3.60;;;41.40;30.00;;;;;;5036774;28;20045;-59
2023/07/23 06:58:29;;;;;;;5.18;3.58;;;39.90;31.20;;;;;;5035843;28;20056;-63
2023/07/23 07:00:55;;;;;;;6.88;3.72;;;38.80;32.70;;;;;;5025879;28;20021;-60
2023/07/23 07:03:21;;;;;;;6.38;3.60;;;37.50;34.20;;;;;;5015773;28;20029;-59
2023/07/23 07:05:48;;;;;;;7.13;3.78;;;36.40;35.60;;;;;;5015674;28;20042;-62
2023/07/23 07:08:14;;;;;;;5.15;3.75;;;35.40;37.00;;;;;;5017098;28;20025;-60
2023/07/23 07:10:40;;;;;;;5.15;3.78;;;34.60;38.10;;;;;;5016799;28;20381;-63
2023/07/23 07:13:06;;;;;;;5.35;3.60;;;34.00;39.60;;;;;;5016789;28;20026;-59
2023/07/23 07:15:32;;;;;;;6.43;3.63;;;33.60;40.40;;;;;;5016470;28;20030;-60
2023/07/23 07:18:01;;;;;;;5.47;3.80;;;33.20;40.50;;;;;;5016002;28;20025;-61
2023/07/23 07:20:30;;;;;;;5.65;3.58;;;32.90;41.50;;;;;;5017045;28;20048;-63
2023/07/23 07:23:00;;;;;;;6.20;3.83;;;32.70;42.30;;;;;;5016528;28;20026;-64
2023/07/23 07:25:27;;;;;;;6.50;3.70;;;32.50;42.70;;;;;;5016991;28;20030;-60
2023/07/23 07:27:57;;;;;;;5.35;3.70;;;32.30;43.30;;;;;;5016251;28;20097;-62
2023/07/23 07:30:23;;;;;;;6.00;3.78;;;32.20;43.60;;;;;;5016124;28;20038;-62
2023/07/23 07:32:52;;;;;;;6.70;4.13;;;32.10;43.90;;;;;;5016290;28;20498;-62
2023/07/23 07:35:22;;;;;;;6.88;3.92;;;32.00;44.10;;;;;;5015304;28;20034;-61
2023/07/23 07:37:51;;;;;;;6.88;4.00;;;32.00;44.10;;;;;;5016812;28;20022;-61
2023/07/23 07:40:17;;;;;;;8.68;4.15;;;32.00;44.20;;;;;;5016455;28;20092;-65
2023/07/23 07:42:56;;;;;;;5.57;3.75;;;32.00;44.50;;;;;;5016269;28;20435;-63
2023/07/23 07:45:23;;;;;;;5.35;3.88;;;31.90;44.60;;;;;;5016138;28;20096;-61
2023/07/23 07:47:50;;;;;;;7.90;4.22;;;31.90;44.70;;;;;;5016111;28;20026;-60
2023/07/23 07:50:16;;;;;;;7.30;4.20;;;32.00;44.80;;;;;;5016065;28;20448;-61
2023/07/23 07:52:42;;;;;;;6.50;4.05;;;31.90;45.00;;;;;;5015100;28;20026;-65
2023/07/23 07:55:08;;;;;;;7.53;4.18;;;31.90;45.00;;;;;;5016147;28;20029;-63
2023/07/23 07:57:35;;;;;;;6.40;4.00;;;31.80;45.10;;;;;;5015928;28;20026;-62
2023/07/23 08:00:07;;;;;;;6.90;4.07;;;31.80;45.60;;;;;;5016322;28;20030;-63
2023/07/23 08:02:33;;;;;;;8.48;4.00;;;31.70;46.00;;;;;;5015641;28;20036;-62
2023/07/23 08:04:59;;;;;;;6.05;3.75;;;31.70;46.00;;;;;;5015727;28;20033;-62
2023/07/23 08:07:25;;;;;;;6.55;3.88;;;31.70;46.40;;;;;;5015715;28;20057;-63
2023/07/23 08:09:53;;;;;;;7.57;3.92;;;31.80;46.00;;;;;;5015844;28;20125;-63
2023/07/23 08:12:21;;;;;;;5.78;3.70;;;31.90;45.90;;;;;;5016242;28;20036;-61
2023/07/23 08:14:47;;;;;;;5.43;4.00;;;31.80;45.80;;;;;;5015287;28;20036;-62
2023/07/23 08:17:13;;;;;;;6.13;4.13;;;31.80;45.30;;;;;;5015668;28;20022;-62
2023/07/23 08:19:39;;;;;;;7.60;4.38;;;31.70;45.20;;;;;;5015768;28;20033;-64
2023/07/23 08:22:06;;;;;;;5.75;3.92;;;31.60;45.20;;;;;;5015862;28;20018;-64
2023/07/23 08:24:32;;;;;;;6.10;3.97;;;31.50;45.60;;;;;;5015535;28;20030;-66
2023/07/23 08:27:06;;;;;;;6.18;3.95;;;31.40;45.60;;;;;;5013981;28;20389;-64
2023/07/23 08:29:34;;;;;;;6.95;4.00;;;31.40;45.90;;;;;;5015337;28;20068;-66
2023/07/23 08:32:01;;;;;;;7.40;3.90;;;31.30;46.30;;;;;;5015655;28;20464;-62
2023/07/23 08:34:28;;;;;;;5.97;3.90;;;31.40;46.30;;;;;;5015937;28;20049;-62
2023/07/23 08:36:55;;;;;;;6.80;3.88;;;31.40;46.40;;;;;;5015356;28;20026;-61
2023/07/23 08:39:21;;;;;;;7.95;4.43;;;31.40;46.20;;;;;;5015269;28;20109;-64
2023/07/23 08:42:02;;;;;;;6.75;4.35;;;31.30;46.20;;;;;;5014312;28;20452;-64
2023/07/23 08:45:01;;;;;;;7.65;4.30;;;31.30;46.70;;;;;;5015843;28;20025;-63
2023/07/23 08:47:29;;;;;;;6.70;4.20;;;31.40;47.00;;;;;;5014357;28;20034;-63
2023/07/23 08:49:56;;;;;;;5.38;3.50;;;31.50;46.70;;;;;;5014758;28;20104;-63
2023/07/23 08:52:23;;;;;;;7.93;4.40;;;31.50;46.80;;;;;;5013217;28;20022;-62
2023/07/23 08:54:49;;;;;;;6.93;4.45;;;31.50;46.90;;;;;;4997376;28;20030;-63
2023/07/23 08:57:15;;;;;;;7.22;4.30;;;31.60;46.50;;;;;;5014453;28;20033;-62
2023/07/23 08:59:42;;;;;;;5.88;4.07;;;31.60;46.60;;;;;;5015037;28;20030;-62
2023/07/23 09:02:12;;;;;;;6.05;4.10;;;31.60;46.90;;;;;;5014057;28;20515;-57
2023/07/23 09:04:38;;;;;;;8.07;4.45;;;31.70;46.70;;;;;;5014398;28;20030;-64
2023/07/23 09:07:17;;;;;;;6.90;4.30;;;31.60;46.80;;;;;;5014514;28;20058;-63
2023/07/23 09:09:47;;;;;;;6.95;4.00;;;31.50;47.10;;;;;;5015477;28;20029;-61
2023/07/23 09:12:12;;;;;;;6.53;4.20;;;31.40;47.20;;;;;;5014863;28;20033;-63
2023/07/23 09:14:43;;;;;;;6.85;4.13;;;31.40;47.20;;;;;;5015004;28;20033;-60
2023/07/23 09:17:20;;;;;;;8.18;4.50;;;31.40;47.00;;;;;;5014087;28;20026;-61
2023/07/23 09:19:47;;;;;;;7.50;4.30;;;31.40;47.10;;;;;;5014029;28;20030;-60
2023/07/23 09:22:19;;;;;;;8.27;5.50;;;31.40;47.10;;;;;;5014082;28;20321;-59
2023/07/23 09:24:45;;;;;;;9.25;5.45;;;31.40;48.10;;;;;;5013376;28;20021;-62
2023/07/23 09:27:11;;;;;;;10.73;7.15;;;31.40;47.30;;;;;;5014343;28;20028;-61
2023/07/23 09:29:41;;;;;;;9.43;5.18;;;31.40;47.50;;;;;;5014289;28;20165;-59
2023/07/23 09:32:26;;;;;;;9.45;5.13;;;31.40;47.60;;;;;;5014327;28;20083;-64
2023/07/23 09:34:56;;;;;;;7.38;4.55;;;31.40;47.80;;;;;;5014253;28;20038;-61
2023/07/23 09:37:23;;;;;;;7.75;4.18;;;31.40;47.90;;;;;;5014406;28;20029;-60
2023/07/23 09:39:53;;;;;;;6.47;4.38;;;31.40;48.00;;;;;;5013847;28;20121;-62
2023/07/23 09:42:22;;;;;;;7.72;4.55;;;31.40;47.90;;;;;;5017652;28;20045;-64
2023/07/23 09:44:49;;;;;;;6.82;4.55;;;31.40;47.80;;;;;;5018339;28;20432;-63
2023/07/23 09:47:15;;;;;;;6.32;4.28;;;31.40;47.40;;;;;;5018390;28;20029;-62
2023/07/23 09:49:42;;;;;;;6.95;3.75;;;31.30;47.50;;;;;;5018322;28;20029;-62
2023/07/23 09:52:09;;;;;;;6.13;4.22;;;31.30;47.40;;;;;;5018290;28;20053;-61
2023/07/23 09:54:36;;;;;;;9.98;4.60;;;31.30;47.20;;;;;;5018262;28;20478;-59
2023/07/23 09:57:03;;;;;;;5.38;3.80;;;31.20;47.10;;;;;;5018171;28;20053;-64
2023/07/23 09:59:30;;;;;;;6.13;3.90;;;31.00;46.50;;;;;;5018020;28;20025;-63
2023/07/23 10:01:56;;;;;;;5.32;3.80;;;31.00;46.70;;;;;;5018423;28;20053;-59
2023/07/23 10:04:26;;;;;;;5.65;3.85;;;31.20;46.80;;;;;;5018080;28;20087;-64
2023/07/23 10:06:54;;;;;;;7.53;4.22;;;31.20;46.70;;;;;;5017812;28;20042;-60
2023/07/23 10:09:25;;;;;;;7.53;3.95;;;31.20;46.40;;;;;;5017127;28;20067;-62
2023/07/23 10:11:51;;;;;;;5.43;3.55;;;31.20;46.30;;;;;;5017999;28;20026;-60
2023/07/23 10:14:17;;;;;;;6.97;3.80;;;31.30;46.50;;;;;;5017997;28;20037;-61
2023/07/23 10:16:44;;;;;;;6.97;4.00;;;31.30;46.60;;;;;;5017919;28;20022;-59
2023/07/23 10:19:13;;;;;;;8.13;4.00;;;31.30;46.60;;;;;;5018321;28;20095;-63
2023/07/23 10:21:49;;;;;;;7.95;4.40;;;31.40;46.40;;;;;;5018054;28;20101;-63
2023/07/23 10:24:15;;;;;;;6.07;3.70;;;31.40;46.50;;;;;;5017680;28;20026;-63
2023/07/23 10:26:45;;;;;;;6.20;4.07;;;31.40;46.70;;;;;;5017778;28;20038;-62
2023/07/23 10:29:14;;;;;;;7.72;3.97;;;31.40;46.70;;;;;;5017667;28;20057;-64
2023/07/23 10:31:42;;;;;;;7.50;4.28;;;31.50;46.70;;;;;;5017867;28;20038;-66
2023/07/23 10:34:25;;;;;;;7.78;4.18;;;31.50;46.50;;;;;;5017840;28;20018;-60
2023/07/23 10:37:10;;;;;;;8.00;4.13;;;31.50;46.30;;;;;;5017716;28;20101;-61
2023/07/23 10:39:40;;;;;;;5.25;3.70;;;31.50;46.30;;;;;;5017423;28;20030;-63
2023/07/23 10:42:06;;;;;;;6.72;4.10;;;31.50;46.10;;;;;;5017695;28;20149;-65
2023/07/23 10:44:32;;;;;;;7.68;3.88;;;31.50;46.00;;;;;;5017349;28;20030;-61
2023/07/23 10:47:02;;;;;;;7.68;4.47;;;31.50;46.20;;;;;;5016237;28;20407;-62
2023/07/23 10:49:29;;;;;;;7.20;4.38;;;31.60;46.20;;;;;;5000456;28;20029;-63
2023/07/23 10:52:16;;;;;;;8.95;4.25;;;31.70;46.50;;;;;;5017127;28;20026;-60
2023/07/23 10:54:44;;;;;;;6.72;3.85;;;31.80;46.40;;;;;;5016835;28;20029;-61
2023/07/23 10:57:24;;;;;;;7.28;4.20;;;31.90;46.50;;;;;;5017288;28;20041;-64
2023/07/23 10:59:56;;;;;;;7.18;4.35;;;31.90;46.50;;;;;;5017524;28;20060;-65
2023/07/23 11:02:28;;;;;;;11.20;4.60;;;31.90;46.50;;;;;;5016077;28;20348;-62
2023/07/23 11:04:57;;;;;;;5.90;4.03;;;31.90;46.50;;;;;;5017121;28;20249;-62
2023/07/23 11:07:28;;;;;;;5.65;3.90;;;31.80;46.40;;;;;;5015731;28;20042;-62
2023/07/23 11:09:55;;;;;;;6.65;4.32;;;31.70;46.80;;;;;;5017368;28;20036;-63
2023/07/23 11:12:23;;;;;;;7.78;4.10;;;31.70;47.00;;;;;;5017333;28;20033;-65
2023/07/23 11:14:55;;;;;;;7.30;4.15;;;31.70;47.10;;;;;;5016590;28;20137;-62
2023/07/23 11:17:23;;;;;;;6.90;3.90;;;31.70;47.40;;;;;;5017253;28;20352;-60
2023/07/23 11:19:50;;;;;;;6.85;4.45;;;31.80;47.60;;;;;;5016614;28;20416;-61
2023/07/23 11:22:16;;;;;;;7.55;4.40;;;31.80;47.30;;;;;;5017174;28;20018;-59
2023/07/23 11:24:42;;;;;;;6.70;4.28;;;31.70;47.60;;;;;;5016762;28;20033;-63
2023/07/23 11:27:10;;;;;;;7.60;4.40;;;31.70;48.00;;;;;;5015561;28;20077;-62
2023/07/23 11:29:36;;;;;;;6.75;4.20;;;31.80;48.00;;;;;;5015476;28;20026;-60
2023/07/23 11:32:03;;;;;;;8.63;4.50;;;31.80;47.90;;;;;;5016408;28;20037;-64
2023/07/23 11:34:29;;;;;;;7.78;4.70;;;31.80;47.70;;;;;;5015410;28;20123;-61
2023/07/23 11:36:55;;;;;;;8.32;4.60;;;31.70;47.90;;;;;;5016351;28;20033;-61
2023/07/23 11:39:24;;;;;;;7.03;4.43;;;31.60;48.10;;;;;;5016170;28;20062;-63
2023/07/23 11:41:50;;;;;;;8.82;4.78;;;31.60;48.40;;;;;;5015572;28;20084;-62
2023/07/23 11:44:16;;;;;;;8.55;4.57;;;31.70;48.50;;;;;;5016760;28;20022;-61
2023/07/23 11:46:42;;;;;;;7.35;4.32;;;31.80;48.40;;;;;;5016125;28;20026;-66
2023/07/23 11:49:17;;;;;;;7.82;4.20;;;31.80;48.30;;;;;;5016189;28;20025;-65
2023/07/23 11:51:43;;;;;;;7.53;4.63;;;31.90;48.40;;;;;;5016612;28;20053;-65
2023/07/23 11:54:13;;;;;;;8.52;4.20;;;31.90;48.10;;;;;;5016560;28;20026;-65
2023/07/23 11:56:40;;;;;;;8.90;4.32;;;31.90;48.30;;;;;;5015967;28;20057;-61
2023/07/23 11:59:10;;;;;;;8.95;4.45;;;32.00;48.30;;;;;;5016192;28;20380;-60
2023/07/23 12:01:37;;;;;;;6.82;4.28;;;32.10;48.50;;;;;;5016440;28;20033;-61
2023/07/23 12:04:05;;;;;;;8.10;4.60;;;32.20;48.40;;;;;;5015931;28;20034;-63
2023/07/23 12:06:33;;;;;;;8.07;4.38;;;32.30;48.60;;;;;;4998447;28;20049;-63
2023/07/23 12:08:59;;;;;;;7.25;4.20;;;32.40;48.30;;;;;;5015817;28;20105;-61
2023/07/23 12:11:35;;;;;;;7.30;4.32;;;32.30;48.10;;;;;;5015780;28;20053;-64
2023/07/23 12:14:06;;;;;;;6.70;4.53;;;32.40;48.20;;;;;;5016276;28;20069;-63
2023/07/23 12:16:40;;;;;;;7.78;4.53;;;32.40;48.40;;;;;;5015939;28;20032;-61
2023/07/23 12:19:16;;;;;;;7.78;4.55;;;32.40;48.30;;;;;;5015915;28;20057;-63
2023/07/23 12:21:54;;;;;;;7.97;4.30;;;32.40;48.30;;;;;;5015687;28;20057;-60
2023/07/23 12:24:30;;;;;;;7.22;4.45;;;32.40;48.60;;;;;;5015592;28;20423;-61
2023/07/23 12:26:58;;;;;;;6.82;4.25;;;32.50;48.70;;;;;;5015498;28;20026;-60
2023/07/23 12:29:27;;;;;;;7.55;4.38;;;32.50;48.80;;;;;;5015773;28;20026;-62
2023/07/23 12:32:13;;;;;;;7.57;4.38;;;32.60;48.70;;;;;;5016033;28;20026;-65
2023/07/23 12:34:41;;;;;;;7.57;4.20;;;32.70;48.60;;;;;;5015690;28;20025;-61
2023/07/23 12:37:08;;;;;;;7.28;4.70;;;32.70;48.40;;;;;;5015686;28;20049;-64
2023/07/23 12:39:34;;;;;;;6.68;4.07;;;32.70;48.40;;;;;;5015345;28;20440;-61
2023/07/23 12:42:00;;;;;;;6.57;4.35;;;32.70;48.50;;;;;;5015671;28;20079;-62
2023/07/23 12:44:29;;;;;;;7.40;4.40;;;32.70;48.70;;;;;;5014397;28;20029;-64
2023/07/23 12:46:57;;;;;;;5.78;3.85;;;32.80;48.70;;;;;;5015274;28;20034;-62